OAS8535 SKRG-SKBO
Flight info
| Callsign | OAS8535 |
|---|---|
| Flight time | 0h 25m |
| Altitude | 19000 |
| Route | ISVAT2B ISVAT ISVAT4E |
| Aircraft | A320/M-SDE3FGHIRWY/LB1 |
Departure
| Time | 2026-05-09 19:06 |
|---|---|
| Airport | Jose Maria Córdova International Airport (SKRG) |
Arrival
| Time | 2026-05-09 19:32 |
|---|---|
| Airport | El Dorado International Airport (SKBO) |
| Time | Latitude | Longitude | Altitude | Speed | Heading |
|---|---|---|---|---|---|
| 2026-05-09 18:41 | 6.17002 | -75.42738 | 7018 ft | 0 kts | 317° |
| 2026-05-09 18:54 | 6.17001 | -75.42737 | 7018 ft | 1 kts | 317° |
| 2026-05-09 18:54 | 6.16988 | -75.42727 | 7019 ft | 3 kts | 338° |
| 2026-05-09 18:55 | 6.16970 | -75.42723 | 7018 ft | 3 kts | 11° |
| 2026-05-09 18:55 | 6.16952 | -75.42730 | 7019 ft | 3 kts | 36° |
| 2026-05-09 18:55 | 6.16937 | -75.42743 | 7021 ft | 3 kts | 56° |
| 2026-05-09 18:55 | 6.16934 | -75.42748 | 7018 ft | 1 kts | 62° |
| 2026-05-09 18:56 | 6.16942 | -75.42734 | 7019 ft | 3 kts | 58° |
| 2026-05-09 18:56 | 6.16954 | -75.42718 | 7018 ft | 3 kts | 52° |
| 2026-05-09 18:56 | 6.16968 | -75.42703 | 7018 ft | 3 kts | 45° |
| 2026-05-09 18:56 | 6.16983 | -75.42689 | 7018 ft | 3 kts | 39° |
| 2026-05-09 18:57 | 6.16995 | -75.42681 | 7018 ft | 1 kts | 34° |
| 2026-05-09 18:59 | 6.17005 | -75.42674 | 7018 ft | 5 kts | 34° |
| 2026-05-09 18:59 | 6.17032 | -75.42647 | 7017 ft | 6 kts | 58° |
| 2026-05-09 18:59 | 6.17031 | -75.42592 | 7014 ft | 10 kts | 127° |
| 2026-05-09 18:59 | 6.16964 | -75.42548 | 7013 ft | 13 kts | 149° |
| 2026-05-09 19:00 | 6.16882 | -75.42498 | 7001 ft | 11 kts | 149° |
| 2026-05-09 19:00 | 6.16661 | -75.42483 | 6996 ft | 20 kts | 179° |
| 2026-05-09 19:00 | 6.16507 | -75.42481 | 6982 ft | 24 kts | 179° |
| 2026-05-09 19:01 | 6.16335 | -75.42478 | 6981 ft | 23 kts | 180° |
| 2026-05-09 19:01 | 6.16172 | -75.42478 | 6978 ft | 24 kts | 179° |
| 2026-05-09 19:01 | 6.15999 | -75.42477 | 6976 ft | 25 kts | 179° |
| 2026-05-09 19:01 | 6.15821 | -75.42475 | 6975 ft | 26 kts | 180° |
| 2026-05-09 19:02 | 6.15649 | -75.42474 | 6973 ft | 25 kts | 179° |
| 2026-05-09 19:02 | 6.15481 | -75.42473 | 6976 ft | 24 kts | 179° |
| 2026-05-09 19:02 | 6.15310 | -75.42473 | 6977 ft | 24 kts | 180° |
| 2026-05-09 19:02 | 6.15144 | -75.42472 | 6977 ft | 24 kts | 179° |
| 2026-05-09 19:03 | 6.14977 | -75.42472 | 6978 ft | 23 kts | 180° |
| 2026-05-09 19:03 | 6.14888 | -75.42442 | 6975 ft | 13 kts | 108° |
| 2026-05-09 19:03 | 6.14887 | -75.42416 | 6976 ft | 0 kts | 91° |
| 2026-05-09 19:04 | 6.14887 | -75.42406 | 6976 ft | 4 kts | 91° |
| 2026-05-09 19:04 | 6.14888 | -75.42358 | 6975 ft | 9 kts | 76° |
| 2026-05-09 19:04 | 6.14938 | -75.42312 | 6977 ft | 11 kts | 28° |
| 2026-05-09 19:04 | 6.15003 | -75.42298 | 6978 ft | 0 kts | 359° |
| 2026-05-09 19:05 | 6.15144 | -75.42299 | 6977 ft | 56 kts | 360° |
| 2026-05-09 19:05 | 6.15767 | -75.42304 | 6979 ft | 121 kts | 359° |
| 2026-05-09 19:05 | 6.16789 | -75.42311 | 6997 ft | 171 kts | 0° |
| 2026-05-09 19:06 | 6.18048 | -75.42341 | 7499 ft | 183 kts | 1° |
| 2026-05-09 19:06 | 6.19325 | -75.42362 | 8302 ft | 185 kts | 3° |
| 2026-05-09 19:06 | 6.20602 | -75.42354 | 8861 ft | 187 kts | 6° |
| 2026-05-09 19:06 | 6.21852 | -75.41917 | 9026 ft | 198 kts | 45° |
| 2026-05-09 19:07 | 6.22629 | -75.40783 | 9171 ft | 203 kts | 81° |
| 2026-05-09 19:07 | 6.22556 | -75.39381 | 9472 ft | 205 kts | 117° |
| 2026-05-09 19:07 | 6.21788 | -75.38187 | 9997 ft | 204 kts | 128° |
| 2026-05-09 19:07 | 6.20957 | -75.37029 | 10470 ft | 205 kts | 128° |
| 2026-05-09 19:08 | 6.20118 | -75.35859 | 10959 ft | 207 kts | 128° |
| 2026-05-09 19:08 | 6.19272 | -75.34680 | 11415 ft | 209 kts | 128° |
| 2026-05-09 19:08 | 6.18419 | -75.33492 | 11838 ft | 211 kts | 128° |
| 2026-05-09 19:08 | 6.17556 | -75.32287 | 12217 ft | 214 kts | 128° |
| 2026-05-09 19:09 | 6.16543 | -75.31140 | 12402 ft | 227 kts | 139° |
| 2026-05-09 19:09 | 6.15231 | -75.30148 | 12502 ft | 247 kts | 150° |
| 2026-05-09 19:09 | 6.13606 | -75.29383 | 12660 ft | 270 kts | 159° |
| 2026-05-09 19:09 | 6.11772 | -75.28686 | 12792 ft | 293 kts | 159° |
| 2026-05-09 19:10 | 6.09789 | -75.27929 | 12916 ft | 316 kts | 159° |
| 2026-05-09 19:10 | 6.07693 | -75.27130 | 13026 ft | 337 kts | 159° |
| 2026-05-09 19:10 | 6.05449 | -75.26273 | 13303 ft | 350 kts | 159° |
| 2026-05-09 19:10 | 6.03149 | -75.25393 | 13796 ft | 356 kts | 159° |
| 2026-05-09 19:11 | 6.00799 | -75.24494 | 14359 ft | 358 kts | 159° |
| 2026-05-09 19:11 | 5.98486 | -75.23613 | 14770 ft | 364 kts | 159° |
| 2026-05-09 19:11 | 5.96104 | -75.22704 | 15240 ft | 368 kts | 159° |
| 2026-05-09 19:11 | 5.93702 | -75.21788 | 15706 ft | 373 kts | 159° |
| 2026-05-09 19:12 | 5.91254 | -75.20856 | 16058 ft | 379 kts | 159° |
| 2026-05-09 19:12 | 5.88772 | -75.19908 | 16507 ft | 383 kts | 159° |
| 2026-05-09 19:12 | 5.86269 | -75.18951 | 17013 ft | 386 kts | 159° |
| 2026-05-09 19:12 | 5.83742 | -75.17981 | 17444 ft | 391 kts | 159° |
| 2026-05-09 19:13 | 5.81195 | -75.16998 | 17885 ft | 395 kts | 159° |
| 2026-05-09 19:13 | 5.78616 | -75.16001 | 18302 ft | 399 kts | 159° |
| 2026-05-09 19:13 | 5.76011 | -75.14995 | 18676 ft | 403 kts | 159° |
| 2026-05-09 19:13 | 5.73386 | -75.13986 | 18852 ft | 404 kts | 159° |
| 2026-05-09 19:14 | 5.70726 | -75.12971 | 18900 ft | 415 kts | 160° |
| 2026-05-09 19:14 | 5.67999 | -75.11925 | 18905 ft | 422 kts | 159° |
| 2026-05-09 19:14 | 5.65263 | -75.10830 | 18903 ft | 424 kts | 158° |
| 2026-05-09 19:14 | 5.62534 | -75.09705 | 18904 ft | 424 kts | 158° |
| 2026-05-09 19:15 | 5.59809 | -75.08567 | 18907 ft | 424 kts | 158° |
| 2026-05-09 19:15 | 5.57124 | -75.07442 | 18907 ft | 409 kts | 158° |
| 2026-05-09 19:15 | 5.54558 | -75.06368 | 18873 ft | 391 kts | 158° |
| 2026-05-09 19:15 | 5.52103 | -75.05345 | 18863 ft | 376 kts | 158° |
| 2026-05-09 19:16 | 5.49708 | -75.04350 | 18869 ft | 371 kts | 158° |
| 2026-05-09 19:16 | 5.47327 | -75.03367 | 18871 ft | 370 kts | 158° |
| 2026-05-09 19:16 | 5.44948 | -75.02391 | 18870 ft | 369 kts | 158° |
| 2026-05-09 19:16 | 5.42570 | -75.01415 | 18873 ft | 369 kts | 158° |
| 2026-05-09 19:17 | 5.40193 | -75.00437 | 18874 ft | 369 kts | 158° |
| 2026-05-09 19:17 | 5.37817 | -74.99457 | 18833 ft | 369 kts | 158° |
| 2026-05-09 19:17 | 5.35445 | -74.98468 | 18830 ft | 369 kts | 158° |
| 2026-05-09 19:17 | 5.33082 | -74.97457 | 18823 ft | 369 kts | 157° |
| 2026-05-09 19:18 | 5.30733 | -74.96418 | 18814 ft | 369 kts | 157° |
| 2026-05-09 19:18 | 5.28374 | -74.95404 | 18811 ft | 369 kts | 158° |
| 2026-05-09 19:18 | 5.26014 | -74.94412 | 18807 ft | 369 kts | 158° |
| 2026-05-09 19:18 | 5.23688 | -74.93328 | 18806 ft | 369 kts | 150° |
| 2026-05-09 19:19 | 5.21558 | -74.91895 | 18806 ft | 369 kts | 141° |
| 2026-05-09 19:19 | 5.19706 | -74.90152 | 18575 ft | 372 kts | 132° |
| 2026-05-09 19:19 | 5.18159 | -74.88082 | 18243 ft | 369 kts | 121° |
| 2026-05-09 19:19 | 5.16889 | -74.85855 | 18026 ft | 366 kts | 120° |
| 2026-05-09 19:20 | 5.15610 | -74.83612 | 17765 ft | 364 kts | 120° |
| 2026-05-09 19:20 | 5.14346 | -74.81424 | 17510 ft | 362 kts | 120° |
| 2026-05-09 19:20 | 5.13082 | -74.79249 | 17269 ft | 360 kts | 120° |
| 2026-05-09 19:20 | 5.11842 | -74.77116 | 17021 ft | 358 kts | 121° |
| 2026-05-09 19:21 | 5.10593 | -74.74965 | 16781 ft | 356 kts | 121° |
| 2026-05-09 19:21 | 5.09353 | -74.72827 | 16541 ft | 353 kts | 121° |
| 2026-05-09 19:21 | 5.08124 | -74.70700 | 16302 ft | 352 kts | 120° |
| 2026-05-09 19:21 | 5.06904 | -74.68583 | 16067 ft | 350 kts | 121° |
| 2026-05-09 19:22 | 5.05687 | -74.66474 | 15833 ft | 349 kts | 121° |
| 2026-05-09 19:22 | 5.04472 | -74.64373 | 15600 ft | 347 kts | 121° |
| 2026-05-09 19:22 | 5.03266 | -74.62287 | 15367 ft | 345 kts | 121° |
| 2026-05-09 19:22 | 5.02068 | -74.60212 | 15135 ft | 343 kts | 121° |
| 2026-05-09 19:23 | 5.00880 | -74.58156 | 14872 ft | 339 kts | 121° |
| 2026-05-09 19:23 | 4.99698 | -74.56115 | 14444 ft | 338 kts | 121° |
| 2026-05-09 19:23 | 4.98512 | -74.54070 | 13985 ft | 340 kts | 121° |
| 2026-05-09 19:23 | 4.97334 | -74.52040 | 13503 ft | 332 kts | 122° |
| 2026-05-09 19:24 | 4.96192 | -74.50072 | 13111 ft | 319 kts | 121° |
| 2026-05-09 19:24 | 4.95120 | -74.48217 | 13021 ft | 297 kts | 122° |
| 2026-05-09 19:24 | 4.94117 | -74.46478 | 12802 ft | 281 kts | 122° |
| 2026-05-09 19:24 | 4.93152 | -74.44806 | 12602 ft | 275 kts | 122° |
| 2026-05-09 19:25 | 4.92193 | -74.43151 | 12610 ft | 273 kts | 122° |
| 2026-05-09 19:25 | 4.91159 | -74.41613 | 12636 ft | 259 kts | 134° |
| 2026-05-09 19:25 | 4.89713 | -74.40656 | 12668 ft | 244 kts | 157° |
| 2026-05-09 19:25 | 4.88284 | -74.39834 | 12691 ft | 235 kts | 133° |
| 2026-05-09 19:26 | 4.87316 | -74.38511 | 12705 ft | 235 kts | 126° |
| 2026-05-09 19:26 | 4.86377 | -74.37180 | 12730 ft | 232 kts | 128° |
| 2026-05-09 19:26 | 4.85404 | -74.35879 | 12583 ft | 234 kts | 129° |
| 2026-05-09 19:26 | 4.84426 | -74.34589 | 12359 ft | 231 kts | 127° |
| 2026-05-09 19:27 | 4.83464 | -74.33318 | 12092 ft | 227 kts | 127° |
| 2026-05-09 19:27 | 4.82508 | -74.32055 | 11836 ft | 227 kts | 127° |
| 2026-05-09 19:27 | 4.81585 | -74.30835 | 11579 ft | 213 kts | 127° |
| 2026-05-09 19:27 | 4.80717 | -74.29689 | 11326 ft | 200 kts | 127° |
| 2026-05-09 19:28 | 4.79926 | -74.28643 | 11125 ft | 181 kts | 127° |
| 2026-05-09 19:28 | 4.79189 | -74.27670 | 10906 ft | 167 kts | 127° |
| 2026-05-09 19:28 | 4.78500 | -74.26759 | 10724 ft | 163 kts | 127° |
| 2026-05-09 19:28 | 4.77829 | -74.25873 | 10545 ft | 161 kts | 128° |
| 2026-05-09 19:29 | 4.77152 | -74.24979 | 10362 ft | 162 kts | 127° |
| 2026-05-09 19:29 | 4.76476 | -74.24086 | 10175 ft | 163 kts | 126° |
| 2026-05-09 19:29 | 4.75796 | -74.23188 | 9982 ft | 159 kts | 126° |
| 2026-05-09 19:29 | 4.75130 | -74.22307 | 9789 ft | 159 kts | 125° |
| 2026-05-09 19:30 | 4.74458 | -74.21420 | 9618 ft | 160 kts | 125° |
| 2026-05-09 19:30 | 4.73790 | -74.20538 | 9456 ft | 158 kts | 126° |
| 2026-05-09 19:30 | 4.73122 | -74.19654 | 9208 ft | 159 kts | 127° |
| 2026-05-09 19:30 | 4.72447 | -74.18766 | 8977 ft | 161 kts | 128° |
| 2026-05-09 19:31 | 4.71772 | -74.17888 | 8680 ft | 157 kts | 125° |
| 2026-05-09 19:31 | 4.71114 | -74.17012 | 8435 ft | 156 kts | 124° |
| 2026-05-09 19:31 | 4.70508 | -74.16199 | 8366 ft | 129 kts | 127° |
| 2026-05-09 19:31 | 4.70056 | -74.15603 | 8364 ft | 83 kts | 128° |
| 2026-05-09 19:32 | 4.69803 | -74.15271 | 8365 ft | 43 kts | 127° |
| 2026-05-09 19:32 | 4.69716 | -74.15057 | 8364 ft | 28 kts | 99° |
| 2026-05-09 19:32 | 4.69698 | -74.14913 | 8364 ft | 20 kts | 97° |
| 2026-05-09 19:32 | 4.69744 | -74.14814 | 8365 ft | 16 kts | 39° |
| 2026-05-09 19:33 | 4.69833 | -74.14747 | 8366 ft | 11 kts | 36° |
| 2026-05-09 19:33 | 4.69836 | -74.14695 | 8366 ft | 8 kts | 122° |
| 2026-05-09 19:33 | 4.69803 | -74.14652 | 8366 ft | 9 kts | 124° |
| 2026-05-09 19:33 | 4.69808 | -74.14608 | 8366 ft | 2 kts | 67° |
| 2026-05-09 19:34 | 4.69815 | -74.14593 | 8366 ft | 3 kts | 66° |
| 2026-05-09 19:34 | 4.69820 | -74.14581 | 8366 ft | 0 kts | 66° |